Kezdőlap
METAR-TAF:

METAR-TAF

Repülőterek :

Båtsfjord, Norvégia

földrajzi szélesség: 70-38N, földrajzi hosszúság: 029-44E, magasság: 10 m

Jelenlegi meteorológiai megfigyelések

A jelentés 5 órával és 12 perccel ezelõtt készült, 01:20 UTC
Nyugat-délnyugati szél 20 kt
Hőmérséklet -5°C
Páratartalom 68%
Légköri nyomás 1019 hPa
Látótávolság 10 km, vagy több
Kevés felhő 5000 lábon
alacsony hófúvás

METAR: ENBS 220120Z 24020KT 9999 DRSN FEW050 M05/M10 Q1019

Idő: 07:32 (06:32 UTC)


TAF: hiányzik

Meteorológiai megfigyelések és előrejelzések több, mint 4000 repülőtéren (METAR és TAF jelentéseket).

A térképen piros és sárga pontok jelzik az elérhető meteorológiai állomásokat.

Mozgassa az egeret a pont fölött, hogy megjelenjen az állomás neve.

Azután kattintson az időjárási megfigyelések és előrejelzések megtekintéséhez.

A térkép megváltoztatása: kattintson a fekete keresztel jelölt zöld gombra ráközelítéshez, a vonallal jelölt zöld gombra távolításhoz, vagy a zöld nyilakra a szomszédos térképek eléréséhez.


METAR-TAF: